Latest Weather Observations for Roseworthy

IDS60901

Issued at 6:21 pm CST Tuesday 3 May 2016 (issued every 10 minutes, with the page automatically refreshed every 10 minutes)

About weather observations | Map of Adelaide area stations | Latest observations for Adelaide area | Other Formats
Station Details ID: 023122 Name: ROSEWORTHY AWS Lat: -34.51 Lon: 138.68 Height: 65.0 m
Data from the previous 72 hours. | See also: Recent months at Roseworthy
Date/Time
CST
Tmp

°C
App
Tmp
°C
Dew
Point
°C
Rel
Hum
%
Delta-T

°C
Wind Press
QNH
hPa
Press
MSL
hPa
Rain
since
9 am
mm
Dir
 
Spd
km/h
Gust
km/h
Spd
kts
Gust
kts
03/06:00pm 14.9 11.6 11.5 80 1.8 WSW 20 28 11 15 1010.7 1010.7 0.4
03/05:30pm 15.8 11.0 11.8 77 2.2 WSW 28 41 15 22 1010.3 - 0.4
03/05:00pm 16.3 12.1 12.3 77 2.2 WSW 26 33 14 18 1009.7 - 0.4
03/04:30pm 16.6 11.0 12.2 75 2.4 WSW 33 46 18 25 1009.1 - 0.4
03/04:27pm 16.8 11.1 11.9 73 2.7 WSW 33 46 18 25 1009.0 - 0.4
03/04:01pm 17.4 10.5 11.7 69 3.1 W 39 57 21 31 1008.7 - 0.4
03/04:00pm 17.4 10.1 11.4 68 3.3 W 41 57 22 31 1008.7 - 0.4
03/03:51pm 17.4 10.8 11.2 67 3.4 W 37 56 20 30 1008.5 - 0.4
03/03:30pm 17.6 10.3 11.6 68 3.3 W 41 54 22 29 1008.2 - 0.4
03/03:00pm 17.6 10.3 11.4 67 3.4 W 41 57 22 31 1007.9 1007.9 0.4
03/02:39pm 17.7 11.9 13.8 78 2.2 W 37 56 20 30 1007.6 - 0.4
03/02:30pm 16.8 11.3 14.8 88 1.2 W 37 50 20 27 1007.6 - 0.4
03/02:05pm 16.5 7.6 11.9 74 2.5 W 50 69 27 37 1007.2 - 0.2
03/02:00pm 20.3 12.4 11.5 57 4.9 W 44 57 24 31 1006.8 - 0.2
03/01:30pm 18.5 13.0 14.8 79 2.2 WNW 37 52 20 28 1007.2 - 0.2
03/01:00pm 16.2 9.1 13.5 84 1.5 W 43 61 23 33 1007.4 - 0.0
03/12:55pm 17.4 10.1 12.7 74 2.6 W 43 61 23 33 1007.3 - 0.0
03/12:30pm 19.5 13.1 12.0 62 4.2 WNW 37 50 20 27 1007.2 - 0.0
03/12:00pm 19.1 13.7 13.9 72 3.0 WNW 35 48 19 26 1007.8 1007.8 0.0
03/11:30am 18.1 12.4 14.2 78 2.2 NW 37 48 20 26 1008.0 - 0.0
03/11:15am 17.0 12.1 14.3 84 1.5 NW 33 52 18 28 1008.1 - 0.0
03/11:00am 16.5 10.4 14.0 85 1.4 WNW 39 48 21 26 1008.1 - 0.0
03/10:30am 16.0 10.0 14.4 90 0.9 NW 39 54 21 29 1008.1 - 0.0
03/10:00am 16.8 10.3 14.1 84 1.5 NW 41 54 22 29 1008.1 - 0.0
03/09:50am 15.6 8.9 13.4 87 1.2 WNW 41 59 22 32 1008.2 - 0.0
03/09:30am 15.7 7.7 12.3 80 1.9 WNW 46 59 25 32 1008.1 - 0.0
03/09:08am 17.0 8.6 11.1 68 3.2 NW 46 67 25 36 1007.6 - 0.0
03/09:00am 17.4 9.3 10.8 65 3.6 NW 44 59 24 32 1007.5 1007.6 0.0
03/08:30am 16.7 8.6 10.1 65 3.5 NW 43 54 23 29 1007.4 - 0.0
03/08:15am 16.4 9.0 10.0 66 3.4 NW 39 57 21 31 1007.4 - 0.0
03/08:00am 16.1 8.4 10.0 67 3.2 NW 41 54 22 29 1007.2 - 0.0
03/07:30am 15.5 8.1 9.8 69 3.0 NNW 39 52 21 28 1007.1 - 0.0
03/07:00am 15.4 8.0 9.7 69 3.0 NW 39 48 21 26 1007.1 - 0.0
03/06:30am 15.1 8.4 9.5 69 2.9 NNW 35 46 19 25 1006.9 - 0.0
03/06:00am 14.5 8.0 9.1 70 2.8 NNW 33 43 18 23 1007.2 1007.3 0.0
03/05:30am 14.3 7.4 8.7 69 2.8 NNW 35 44 19 24 1006.9 - 0.0
03/05:00am 14.2 7.9 9.0 71 2.6 NNW 32 41 17 22 1007.1 - 0.0
03/04:30am 13.4 7.9 9.1 75 2.2 NNW 28 37 15 20 1007.4 - 0.0
03/04:00am 13.3 7.2 8.4 72 2.4 NNW 30 39 16 21 1007.3 - 0.0
03/03:30am 13.3 6.9 8.4 72 2.4 NNW 32 39 17 21 1007.3 - 0.0
03/03:00am 12.9 7.3 8.6 75 2.2 N 28 35 15 19 1007.6 1007.7 0.0
03/02:30am 12.7 7.9 8.8 77 2.0 N 24 30 13 16 1008.4 - 0.0
03/02:00am 12.8 8.8 9.1 78 1.9 N 20 26 11 14 1008.8 - 0.0
03/01:30am 13.4 9.0 9.1 75 2.2 NNW 22 28 12 15 1009.4 - 0.0
03/01:00am 13.8 9.5 9.5 75 2.2 NNW 22 30 12 16 1009.5 - 0.0
03/12:30am 14.2 10.4 9.8 75 2.3 NNW 20 26 11 14 1009.7 - 0.0
03/12:00am 14.2 10.4 9.8 75 2.3 NNW 20 26 11 14 1010.2 1010.2 0.0
 
Date/Time
CST
Tmp

°C
App
Tmp
°C
Dew
Point
°C
Rel
Hum
%
Delta-T

°C
Wind Press
QNH
hPa
Press
MSL
hPa
Rain
since
9 am
mm
Dir
 
Spd
km/h
Gust
km/h
Spd
kts
Gust
kts
02/11:30pm 15.5 11.9 10.5 72 2.6 NW 20 26 11 14 1010.3 - 0.0
02/11:00pm 14.9 11.2 10.3 74 2.4 NW 20 26 11 14 1010.4 - 0.0
02/10:30pm 14.7 11.9 10.1 74 2.4 NW 15 20 8 11 1010.8 - 0.0
02/10:00pm 15.0 11.5 10.2 73 2.5 NNW 19 24 10 13 1011.1 - 0.0
02/09:30pm 15.5 12.3 10.1 70 2.8 NNW 17 24 9 13 1011.2 - 0.0
02/09:00pm 15.0 12.0 9.1 68 3.0 NNW 15 19 8 10 1011.3 1011.3 0.0
02/08:30pm 15.4 12.0 9.1 66 3.2 NNW 17 20 9 11 1011.2 - 0.0
02/08:00pm 16.2 12.3 8.7 61 3.8 NNW 19 24 10 13 1011.2 - 0.0
02/07:30pm 15.5 12.4 8.7 64 3.5 NNW 15 17 8 9 1011.2 - 0.0
02/07:00pm 16.6 13.5 8.8 60 4.0 NW 15 17 8 9 1011.3 - 0.0
02/06:30pm 17.5 13.5 9.2 58 4.3 NW 20 26 11 14 1010.9 - 0.0
02/06:00pm 17.7 13.3 9.1 57 4.5 WNW 22 26 12 14 1010.8 1010.8 0.0
02/05:30pm 18.4 12.6 8.1 51 5.3 NW 28 35 15 19 1010.6 - 0.0
02/05:00pm 18.9 13.6 8.3 50 5.5 NW 26 35 14 19 1010.6 - 0.0
02/04:30pm 19.8 13.8 8.8 49 5.8 NW 30 39 16 21 1010.8 - 0.0
02/04:00pm 19.2 13.2 8.8 51 5.4 WNW 30 39 16 21 1011.1 - 0.0
02/03:30pm 18.9 13.9 9.4 54 5.0 WNW 26 39 14 21 1011.2 - 0.0
02/03:15pm 19.4 12.5 8.7 50 5.6 WNW 35 56 19 30 1011.3 - 0.0
02/03:00pm 19.4 11.2 8.1 48 5.9 WNW 41 52 22 28 1011.4 1011.4 0.0
02/02:37pm 17.8 11.3 10.2 61 4.1 WNW 35 54 19 29 1011.5 - 0.0
02/02:30pm 19.3 12.0 8.6 50 5.6 WNW 37 46 20 25 1011.5 - 0.0
02/02:00pm 19.0 12.0 8.6 51 5.4 WNW 35 50 19 27 1011.6 - 0.0
02/01:30pm 19.5 11.5 7.3 45 6.2 WNW 39 57 21 31 1011.8 - 0.0
02/01:25pm 20.9 13.3 7.5 42 6.9 NW 37 57 20 31 1011.8 - 0.0
02/01:00pm 20.3 12.0 5.9 39 7.2 NW 39 54 21 29 1012.1 - 0.0
02/12:44pm 20.8 12.4 5.6 37 7.6 NW 39 59 21 32 1012.2 - 0.0
02/12:30pm 20.6 12.4 5.0 36 7.7 NW 37 52 20 28 1012.4 - 0.0
02/12:00pm 20.0 11.6 5.6 39 7.1 NW 39 50 21 27 1013.0 1013.0 0.0
02/11:48am 19.8 12.5 5.5 39 7.1 WNW 33 52 18 28 1013.2 - 0.0
02/11:30am 19.0 11.9 6.5 44 6.3 WNW 33 48 18 26 1013.4 - 0.0
02/11:00am 18.7 11.7 6.9 46 5.9 WNW 33 48 18 26 1013.9 - 0.0
02/10:30am 18.9 11.9 6.7 45 6.1 NW 33 44 18 24 1014.2 - 0.0
02/10:00am 18.1 11.0 6.3 46 5.8 NW 33 43 18 23 1014.4 - 0.0
02/09:30am 17.0 10.0 6.2 49 5.3 NW 32 43 17 23 1014.5 - 0.0
02/09:00am 16.3 9.8 6.4 52 4.8 NNW 30 37 16 20 1014.6 1014.7 0.0
02/08:30am 15.1 9.3 6.4 56 4.2 NNW 26 32 14 17 1014.4 - 0.0
02/08:00am 13.3 8.9 6.4 63 3.3 N 19 22 10 12 1014.5 - 0.0
02/07:30am 11.5 7.3 5.6 67 2.7 N 17 22 9 12 1014.3 - 0.0
02/07:00am 10.7 5.5 5.3 69 2.5 N 22 26 12 14 1014.0 - 0.0
02/06:30am 10.4 5.7 5.0 69 2.5 N 19 22 10 12 1014.3 - 0.0
02/06:00am 10.9 6.2 5.2 68 2.6 N 19 24 10 13 1014.2 1014.2 0.0
02/05:30am 10.8 6.2 5.8 71 2.3 N 19 20 10 11 1014.3 - 0.0
02/05:00am 10.6 6.4 5.6 71 2.3 N 17 19 9 10 1014.3 - 0.0
02/04:30am 11.0 7.1 5.5 69 2.5 N 15 17 8 9 1014.5 - 0.0
02/04:00am 11.2 7.2 4.9 65 2.9 N 15 17 8 9 1014.5 - 0.0
02/03:30am 13.0 8.7 5.4 60 3.6 N 17 20 9 11 1014.7 - 0.0
02/03:00am 13.5 8.5 6.4 62 3.4 NNW 22 30 12 16 1015.1 1015.2 0.0
02/02:30am 13.0 8.5 6.1 63 3.3 NNW 19 24 10 13 1015.5 - 0.0
02/02:00am 12.8 10.0 7.0 68 2.8 NW 11 13 6 7 1016.1 - 0.0
02/01:30am 12.6 10.2 7.1 69 2.7 N 9 11 5 6 1016.1 - 0.0
02/01:00am 12.7 9.9 7.0 68 2.8 N 11 13 6 7 1016.4 - 0.0
02/12:30am 12.7 9.8 6.5 66 3.0 N 11 13 6 7 1016.5 - 0.0
02/12:00am 12.8 9.5 6.4 65 3.1 N 13 15 7 8 1016.7 1016.8 0.0
 
Date/Time
CST
Tmp

°C
App
Tmp
°C
Dew
Point
°C
Rel
Hum
%
Delta-T

°C
Wind Press
QNH
hPa
Press
MSL
hPa
Rain
since
9 am
mm
Dir
 
Spd
km/h
Gust
km/h
Spd
kts
Gust
kts
01/11:30pm 12.2 8.4 6.0 66 2.9 N 15 17 8 9 1016.9 - 0.0
01/11:00pm 11.5 6.9 5.8 68 2.7 NNE 19 20 10 11 1017.1 - 0.0
01/10:30pm 11.3 7.5 5.8 69 2.6 N 15 15 8 8 1017.4 - 0.0
01/10:00pm 10.4 8.0 5.2 70 2.4 NNE 7 11 4 6 1017.6 - 0.0
01/09:30pm 10.9 7.4 5.4 69 2.5 N 13 13 7 7 1018.0 - 0.0
01/09:00pm 11.1 8.5 4.3 63 3.0 NW 7 9 4 5 1018.0 1018.1 0.0
01/08:30pm 13.2 10.8 5.1 58 3.8 NW 7 11 4 6 1017.9 - 0.0
01/08:00pm 13.6 11.0 6.0 60 3.6 NNW 9 11 5 6 1017.9 - 0.0
01/07:30pm 13.4 11.1 5.8 60 3.6 W 7 9 4 5 1017.9 - 0.0
01/07:00pm 13.4 11.4 4.6 55 4.1 WSW 4 7 2 4 1017.7 - 0.0
01/06:30pm 14.5 11.6 4.5 51 4.6 SW 9 11 5 6 1017.5 - 0.0
01/06:00pm 15.1 12.6 4.5 49 4.9 SW 7 11 4 6 1017.4 1017.5 0.0
01/05:30pm 15.6 11.9 4.3 47 5.3 SW 13 17 7 9 1017.3 - 0.0
01/05:00pm 16.0 12.4 5.0 48 5.2 SSW 13 17 7 9 1017.2 - 0.0
01/04:30pm 16.3 12.6 4.4 45 5.6 SSW 13 19 7 10 1016.9 - 0.0
01/04:00pm 16.4 12.0 4.8 46 5.5 SSW 17 20 9 11 1016.8 - 0.0
01/03:30pm 16.8 12.4 4.8 45 5.7 SSW 17 26 9 14 1016.8 - 0.0
01/03:00pm 17.6 12.5 4.2 41 6.3 SSW 20 30 11 16 1016.6 1016.7 0.0
01/02:30pm 17.7 12.7 4.6 42 6.3 SW 20 28 11 15 1016.3 - 0.0
01/02:00pm 16.9 12.3 5.5 47 5.5 SW 19 32 10 17 1016.4 - 0.0
01/01:30pm 17.0 11.9 5.9 48 5.4 SW 22 32 12 17 1016.5 - 0.0
01/01:00pm 18.2 13.1 6.1 45 6.0 SW 22 33 12 18 1016.3 - 0.0
01/12:30pm 16.7 10.5 6.2 50 5.1 SW 28 37 15 20 1016.6 - 0.0
01/12:00pm 16.9 10.9 5.2 46 5.6 SW 26 35 14 19 1016.5 1016.6 0.0
01/11:30am 16.9 10.2 5.5 47 5.5 WSW 30 41 16 22 1016.6 - 0.0
01/11:00am 18.0 11.6 6.8 48 5.6 WSW 30 39 16 21 1016.9 - 0.0
01/10:30am 16.3 9.4 6.4 52 4.9 WSW 32 46 17 25 1016.8 - 0.0
01/10:00am 16.1 8.4 5.4 49 5.1 SW 35 46 19 25 1016.4 - 0.0
01/09:30am 15.9 7.9 5.5 50 5.0 WSW 37 48 20 26 1016.4 - 0.0
01/09:00am 15.3 8.4 7.1 58 4.0 WSW 33 46 18 25 1016.3 1016.4 1.6
01/08:30am 14.7 8.4 7.3 61 3.7 W 30 41 16 22 1016.2 - 1.6
01/08:00am 14.2 9.7 8.4 68 2.9 W 22 28 12 15 1015.9 - 1.6
01/07:30am 12.3 7.9 7.6 73 2.3 W 20 24 11 13 1015.5 - 1.6
01/07:00am 12.2 7.4 7.3 72 2.4 W 22 28 12 15 1015.2 - 1.6
01/06:30am 11.9 7.0 8.4 79 1.7 W 24 30 13 16 1014.7 - 1.6
01/06:00am 12.6 6.5 8.3 75 2.1 W 30 39 16 21 1014.5 1014.6 1.6
01/05:55am 12.6 6.9 8.5 76 2.0 W 28 39 15 21 1014.5 - 1.6
01/05:30am 11.4 8.0 9.1 86 1.2 WNW 17 20 9 11 1014.1 - 1.6
01/05:00am 11.9 7.2 9.3 84 1.3 WNW 24 30 13 16 1013.6 - 1.6
01/04:30am 12.7 6.0 8.2 74 2.2 NW 33 46 18 25 1012.8 - 1.2
01/04:00am 13.8 8.3 9.0 73 2.4 NW 28 39 15 21 1012.3 - 1.2
01/03:30am 13.8 8.8 9.6 76 2.2 NW 26 33 14 18 1012.2 - 1.2
01/03:00am 14.2 8.7 9.2 72 2.6 WNW 28 39 15 21 1011.8 1011.8 1.2
01/02:30am 14.5 9.0 9.3 71 2.7 WNW 28 35 15 19 1011.4 - 1.2
01/02:00am 14.4 8.5 9.2 71 2.7 W 30 39 16 21 1011.3 - 1.2
01/01:30am 14.6 8.7 9.2 70 2.8 W 30 39 16 21 1010.9 - 1.2
01/01:00am 15.0 8.7 9.8 71 2.7 W 33 44 18 24 1010.7 - 1.2
01/12:30am 14.8 8.8 10.0 73 2.5 W 32 41 17 22 1010.2 - 1.2
01/12:00am 15.3 9.7 10.3 72 2.6 WNW 30 43 16 23 1010.1 1010.1 1.2
 
Date/Time
CST
Tmp

°C
App
Tmp
°C
Dew
Point
°C
Rel
Hum
%
Delta-T

°C
Wind Press
QNH
hPa
Press
MSL
hPa
Rain
since
9 am
mm
Dir
 
Spd
km/h
Gust
km/h
Spd
kts
Gust
kts
30/11:30pm 15.7 10.6 10.5 71 2.8 WNW 28 39 15 21 1010.0 - 1.2
30/11:00pm 15.5 11.6 10.9 74 2.5 NW 22 28 12 15 1010.3 - 1.2
30/10:30pm 16.3 10.8 9.3 63 3.6 WNW 28 41 15 22 1009.8 - 1.2
30/10:00pm 16.7 9.9 9.4 62 3.8 WNW 35 56 19 30 1010.1 - 1.2
30/09:51pm 17.1 10.3 9.3 60 4.1 WNW 35 56 19 30 1009.7 - 1.2
30/09:30pm 17.0 11.8 10.4 65 3.5 WNW 28 41 15 22 1009.9 - 1.2
30/09:06pm 17.6 11.7 10.5 63 3.8 W 32 54 17 29 1009.6 - 1.2
30/09:00pm 17.4 11.6 11.4 68 3.3 W 33 48 18 26 1009.5 1009.4 1.2
30/08:30pm 17.7 10.8 11.5 67 3.4 W 39 54 21 29 1009.1 - 1.2
30/08:00pm 18.9 13.0 12.4 66 3.6 W 35 48 19 26 1007.6 - 0.8
30/07:45pm 19.2 11.9 12.7 66 3.7 W 43 61 23 33 1007.4 - 0.8
30/07:40pm 20.8 12.7 12.0 57 4.9 W 46 57 25 31 1007.2 - 0.2
30/07:30pm 23.5 16.0 8.0 37 8.2 NW 37 56 20 30 1005.7 - 0.0
30/07:22pm 23.2 17.7 9.2 41 7.6 NNW 28 50 15 27 1005.9 - 0.0
30/07:00pm 23.3 18.0 10.0 43 7.3 NNW 28 33 15 18 1005.7 - 0.0
30/06:30pm 24.1 18.4 9.7 40 7.9 NNW 30 39 16 21 1005.7 - 0.0

Latest Capital City Observations: Canberra | Sydney | Melbourne | Brisbane | Adelaide | Perth | Hobart | Darwin

Other Formats:

Comma delimited format used in spreadsheet applications
http://www.bom.gov.au/fwo/IDS60901/IDS60901.95671.axf

JavaScript Object Notation format (JSON) in row-major order
http://www.bom.gov.au/fwo/IDS60901/IDS60901.95671.json